Time;durP1;ratioP1;P1;durP2;ratioP2;P2;SDS_P1;SDS_P2;PMS_P1;PMS_P2;Temp;Humidity;BMP_temperature;BMP_pressure;BME280_temperature;BME280_humidity;BME280_pressure;Samples;Min_cycle;Max_cycle;Signal;HPM_P1;HPM_P2
2021/07/06 00:01:25;;;;;;;2.75;1.38;;;17.40;99.90;;;;;;5053652;28;20202;-58
2021/07/06 00:03:53;;;;;;;4.55;1.98;;;17.50;99.90;;;;;;5053585;28;20208;-58
2021/07/06 00:06:21;;;;;;;2.35;1.67;;;17.50;99.90;;;;;;5053489;28;20324;-59
2021/07/06 00:08:47;;;;;;;3.25;1.63;;;17.60;99.90;;;;;;5053134;28;20206;-59
2021/07/06 00:11:16;;;;;;;2.75;1.77;;;17.60;99.90;;;;;;5053150;28;20213;-59
2021/07/06 00:13:43;;;;;;;1.58;1.40;;;17.50;99.90;;;;;;5053686;28;20700;-60
2021/07/06 00:16:09;;;;;;;7.10;1.80;;;17.40;99.90;;;;;;5053508;28;20685;-58
2021/07/06 00:18:36;;;;;;;2.22;1.60;;;17.40;99.90;;;;;;5053086;28;20496;-58
2021/07/06 00:21:03;;;;;;;6.65;1.50;;;17.40;99.90;;;;;;5053193;28;20209;-58
2021/07/06 00:23:30;;;;;;;5.53;1.55;;;17.30;99.90;;;;;;5053399;28;20384;-58
2021/07/06 00:25:57;;;;;;;4.10;1.50;;;17.20;99.90;;;;;;5052975;28;20661;-59
2021/07/06 00:28:25;;;;;;;4.22;1.60;;;17.20;99.90;;;;;;5052669;28;20716;-58
2021/07/06 00:30:52;;;;;;;3.25;1.48;;;17.20;99.90;;;;;;5052835;28;20339;-58
2021/07/06 00:33:18;;;;;;;4.15;1.85;;;17.10;99.90;;;;;;5052766;28;20206;-58
2021/07/06 00:35:45;;;;;;;3.55;1.80;;;17.00;99.90;;;;;;5052975;28;20232;-58
2021/07/06 00:38:13;;;;;;;3.10;1.63;;;17.10;99.90;;;;;;5052519;28;20209;-58
2021/07/06 00:40:41;;;;;;;2.05;1.63;;;17.10;99.90;;;;;;5053203;28;20302;-58
2021/07/06 00:43:07;;;;;;;2.10;1.90;;;17.20;99.90;;;;;;5053011;28;20243;-58
2021/07/06 00:45:35;;;;;;;2.92;1.65;;;17.20;99.90;;;;;;5052641;28;20236;-58
2021/07/06 00:48:02;;;;;;;5.47;1.52;;;17.20;99.90;;;;;;5052773;28;20212;-58
2021/07/06 00:50:30;;;;;;;2.40;1.70;;;17.20;99.90;;;;;;5052616;28;20446;-58
2021/07/06 00:52:57;;;;;;;1.52;1.27;;;17.20;99.90;;;;;;5052412;28;20607;-59
2021/07/06 00:55:24;;;;;;;5.05;1.90;;;17.20;99.90;;;;;;5052905;28;20209;-59
2021/07/06 00:57:51;;;;;;;3.45;1.90;;;17.20;99.90;;;;;;5051948;28;20212;-58
2021/07/06 01:00:20;;;;;;;5.90;1.92;;;17.20;99.90;;;;;;5052790;28;20229;-59
2021/07/06 01:02:49;;;;;;;5.20;1.42;;;17.20;99.90;;;;;;5052608;28;20213;-58
2021/07/06 01:05:17;;;;;;;3.40;1.60;;;17.20;99.90;;;;;;5051897;28;20853;-59
2021/07/06 01:07:44;;;;;;;2.83;1.55;;;17.20;99.90;;;;;;5052387;28;20218;-59
2021/07/06 01:10:12;;;;;;;1.58;1.48;;;17.40;99.90;;;;;;5052426;28;20201;-57
2021/07/06 01:12:40;;;;;;;2.35;1.58;;;17.40;99.90;;;;;;5052158;28;20421;-58
2021/07/06 01:15:09;;;;;;;4.70;1.90;;;17.30;99.90;;;;;;5052094;28;20213;-58
2021/07/06 01:17:37;;;;;;;6.45;1.70;;;17.40;99.90;;;;;;5051757;28;20588;-58
2021/07/06 01:20:09;;;;;;;3.53;1.27;;;17.40;99.90;;;;;;5052102;28;20299;-59
2021/07/06 01:22:37;;;;;;;1.92;1.60;;;17.40;99.90;;;;;;5052072;28;20205;-59
2021/07/06 01:25:07;;;;;;;1.95;1.45;;;17.50;99.90;;;;;;5051429;28;20671;-58
2021/07/06 01:27:34;;;;;;;2.63;1.80;;;17.40;99.90;;;;;;5051755;28;20233;-59
2021/07/06 01:30:00;;;;;;;5.75;1.50;;;17.40;99.90;;;;;;5051664;28;20205;-58
2021/07/06 01:32:27;;;;;;;1.50;1.40;;;17.50;99.90;;;;;;5051635;28;20266;-58
2021/07/06 01:34:54;;;;;;;2.75;1.48;;;17.60;99.90;;;;;;5051671;28;20633;-58
2021/07/06 01:37:21;;;;;;;2.67;2.00;;;17.60;99.90;;;;;;5052550;28;20226;-58
2021/07/06 01:39:50;;;;;;;3.03;2.05;;;17.70;99.90;;;;;;5052504;28;20238;-58
2021/07/06 01:42:18;;;;;;;2.25;1.55;;;17.70;99.90;;;;;;5052691;28;20233;-58
2021/07/06 01:44:45;;;;;;;1.88;1.30;;;16.80;99.90;;;;;;5052122;28;20205;-58
2021/07/06 01:47:11;;;;;;;4.38;1.30;;;17.60;99.90;;;;;;5052015;28;20252;-58
2021/07/06 01:49:38;;;;;;;4.47;1.73;;;17.60;99.90;;;;;;5051549;28;20568;-58
2021/07/06 01:52:06;;;;;;;2.03;1.67;;;17.50;99.90;;;;;;5051477;28;20216;-58
2021/07/06 01:54:32;;;;;;;3.90;1.67;;;17.50;99.90;;;;;;5051133;28;20210;-58
2021/07/06 01:57:00;;;;;;;6.53;1.73;;;17.50;99.90;;;;;;5051122;28;20594;-57
2021/07/06 01:59:27;;;;;;;4.45;1.42;;;17.40;99.90;;;;;;5050946;28;20226;-58
2021/07/06 02:01:54;;;;;;;1.92;1.70;;;17.40;99.90;;;;;;5051322;28;20248;-57
2021/07/06 02:04:20;;;;;;;2.22;2.03;;;17.40;99.90;;;;;;5051308;28;20202;-58
2021/07/06 02:06:47;;;;;;;7.45;4.30;;;17.40;99.90;;;;;;5050956;28;20307;-58
2021/07/06 02:09:14;;;;;;;5.90;3.42;;;17.40;99.90;;;;;;5050274;28;20586;-57
2021/07/06 02:11:43;;;;;;;3.95;2.40;;;17.30;99.90;;;;;;5051026;28;20214;-59
2021/07/06 02:14:11;;;;;;;3.70;1.80;;;17.30;99.90;;;;;;5051462;28;20259;-57
2021/07/06 02:16:40;;;;;;;2.30;1.65;;;17.20;99.90;;;;;;5051237;28;20283;-57
2021/07/06 02:19:07;;;;;;;3.55;1.67;;;17.20;99.90;;;;;;5050748;28;20717;-59
2021/07/06 02:21:33;;;;;;;3.25;1.58;;;17.10;99.90;;;;;;5050979;28;20209;-57
2021/07/06 02:24:00;;;;;;;2.55;1.35;;;17.00;99.90;;;;;;5050820;28;20579;-57
2021/07/06 02:26:27;;;;;;;1.55;1.45;;;17.20;99.90;;;;;;5050925;28;20742;-58
2021/07/06 02:28:53;;;;;;;4.28;1.25;;;17.10;99.90;;;;;;5051039;28;20212;-57
2021/07/06 02:31:21;;;;;;;2.00;1.42;;;17.00;99.90;;;;;;5050958;28;20212;-58
2021/07/06 02:33:48;;;;;;;2.80;1.58;;;17.10;99.90;;;;;;5050755;28;20255;-57
2021/07/06 02:36:15;;;;;;;4.90;1.77;;;17.00;99.90;;;;;;5050720;28;20226;-59
2021/07/06 02:38:41;;;;;;;2.07;1.70;;;17.00;99.90;;;;;;5051034;28;20217;-57
2021/07/06 02:41:09;;;;;;;4.38;1.48;;;17.00;99.90;;;;;;5050613;28;20670;-58
2021/07/06 02:43:36;;;;;;;4.50;1.80;;;16.90;99.90;;;;;;5050825;28;20206;-58
2021/07/06 02:46:03;;;;;;;2.55;1.38;;;16.90;99.90;;;;;;5050926;28;20225;-57
2021/07/06 02:48:31;;;;;;;5.50;1.83;;;16.80;99.90;;;;;;5050780;28;20580;-57
2021/07/06 02:50:58;;;;;;;3.30;1.50;;;16.80;99.90;;;;;;5050886;28;20209;-58
2021/07/06 02:53:24;;;;;;;2.10;1.60;;;16.70;99.90;;;;;;5050537;28;20271;-57
2021/07/06 02:55:51;;;;;;;4.72;1.80;;;16.60;99.90;;;;;;5050675;28;20236;-58
2021/07/06 02:58:18;;;;;;;7.47;1.60;;;16.60;99.90;;;;;;5050356;28;20216;-57
2021/07/06 03:00:44;;;;;;;3.77;1.57;;;16.50;99.90;;;;;;5050564;28;20249;-58
2021/07/06 03:03:11;;;;;;;3.05;1.48;;;16.50;99.90;;;;;;5050535;28;20214;-58
2021/07/06 03:05:39;;;;;;;4.47;1.50;;;16.50;99.90;;;;;;5050397;28;20644;-57
2021/07/06 03:08:07;;;;;;;2.07;1.53;;;16.60;99.90;;;;;;5050382;28;20597;-57
2021/07/06 03:10:37;;;;;;;4.30;1.70;;;16.60;99.90;;;;;;5050558;28;20205;-58
2021/07/06 03:13:04;;;;;;;4.43;1.33;;;16.70;99.90;;;;;;5050609;28;20214;-58
2021/07/06 03:15:32;;;;;;;4.07;1.60;;;16.70;99.90;;;;;;5050094;28;20208;-57
2021/07/06 03:17:59;;;;;;;2.43;1.60;;;16.60;99.90;;;;;;5050303;28;20244;-57
2021/07/06 03:20:27;;;;;;;2.00;1.40;;;16.70;99.90;;;;;;5051972;28;20237;-58
2021/07/06 03:22:56;;;;;;;1.80;1.57;;;16.70;99.90;;;;;;5054026;28;20589;-57
2021/07/06 03:25:24;;;;;;;2.00;1.42;;;16.80;99.90;;;;;;5054012;28;20213;-58
2021/07/06 03:27:51;;;;;;;1.77;1.60;;;16.90;99.90;;;;;;5054511;28;20201;-57
2021/07/06 03:30:20;;;;;;;1.67;1.40;;;17.00;99.90;;;;;;5054432;28;20228;-58
2021/07/06 03:32:48;;;;;;;2.40;1.83;;;17.30;99.90;;;;;;5054516;28;20210;-58
2021/07/06 03:35:15;;;;;;;2.60;1.70;;;17.30;99.90;;;;;;5054213;28;20217;-58
2021/07/06 03:37:42;;;;;;;4.03;1.90;;;17.40;99.90;;;;;;5053884;28;20493;-57
2021/07/06 03:40:12;;;;;;;6.10;1.90;;;17.40;99.90;;;;;;5053839;28;20236;-58
2021/07/06 03:42:39;;;;;;;5.17;1.90;;;17.40;99.90;;;;;;5053697;28;20626;-58
2021/07/06 03:45:08;;;;;;;4.30;1.80;;;17.40;99.90;;;;;;5054105;28;20210;-58
2021/07/06 03:47:35;;;;;;;2.72;1.50;;;17.50;99.90;;;;;;5053771;28;20287;-59
2021/07/06 03:50:01;;;;;;;5.03;1.40;;;17.50;99.90;;;;;;5053871;28;20297;-59
2021/07/06 03:52:28;;;;;;;5.67;1.83;;;17.50;99.90;;;;;;5053859;28;20221;-59
2021/07/06 03:54:55;;;;;;;3.05;1.48;;;17.50;99.90;;;;;;5053802;28;20206;-60
2021/07/06 03:57:29;;;;;;;4.15;1.60;;;17.60;99.90;;;;;;5053452;28;20230;-59
2021/07/06 03:59:57;;;;;;;2.53;1.45;;;17.40;99.90;;;;;;5053261;28;20225;-59
2021/07/06 04:02:24;;;;;;;4.90;1.67;;;17.50;99.90;;;;;;5053281;28;20280;-59
2021/07/06 04:04:51;;;;;;;3.33;1.50;;;17.50;99.90;;;;;;5053360;28;20205;-60
2021/07/06 04:07:18;;;;;;;3.00;1.50;;;17.50;99.90;;;;;;5091000;22;20229;-63
2021/07/06 04:09:45;;;;;;;4.50;1.50;;;17.50;99.90;;;;;;5073200;28;20231;-63
2021/07/06 04:12:12;;;;;;;3.88;1.50;;;17.50;99.90;;;;;;5073243;28;20211;-63
2021/07/06 04:14:40;;;;;;;1.70;1.58;;;17.50;99.90;;;;;;5072771;28;20668;-63
2021/07/06 04:17:07;;;;;;;3.50;1.70;;;17.50;99.90;;;;;;5073431;28;20225;-63
2021/07/06 04:19:34;;;;;;;3.22;1.60;;;17.60;99.90;;;;;;5073041;28;20229;-63
2021/07/06 04:22:00;;;;;;;3.63;1.90;;;17.70;99.90;;;;;;5073071;28;20325;-63
2021/07/06 04:24:29;;;;;;;3.65;1.67;;;17.90;99.90;;;;;;5072875;28;20578;-63
2021/07/06 04:26:56;;;;;;;1.63;1.40;;;18.00;99.90;;;;;;5072700;28;20225;-63
2021/07/06 04:29:23;;;;;;;3.13;1.17;;;18.20;99.90;;;;;;5072554;28;20259;-63
2021/07/06 04:31:52;;;;;;;2.70;1.27;;;18.40;99.90;;;;;;5072219;28;20212;-63
2021/07/06 04:34:19;;;;;;;2.83;1.30;;;18.50;99.90;;;;;;5072853;28;20213;-62
2021/07/06 04:36:45;;;;;;;1.30;1.13;;;18.60;99.90;;;;;;5072628;28;20247;-63
2021/07/06 04:39:13;;;;;;;1.20;1.10;;;18.70;99.90;;;;;;5072343;28;20212;-62
2021/07/06 04:41:39;;;;;;;4.88;1.23;;;18.80;99.90;;;;;;5072929;28;20232;-62
2021/07/06 04:44:06;;;;;;;2.38;1.20;;;18.90;99.90;;;;;;5072445;28;20552;-62
2021/07/06 04:46:33;;;;;;;5.65;1.40;;;19.00;99.90;;;;;;5072392;28;20715;-62
2021/07/06 04:49:01;;;;;;;2.65;1.30;;;19.10;99.90;;;;;;5072663;28;20714;-62
2021/07/06 04:51:29;;;;;;;1.58;1.30;;;19.30;99.90;;;;;;5072753;28;20209;-62
2021/07/06 04:53:56;;;;;;;1.73;1.30;;;19.50;99.90;;;;;;5072586;28;20288;-62
2021/07/06 04:56:25;;;;;;;1.65;1.38;;;19.70;99.90;;;;;;5072528;28;20229;-62
2021/07/06 04:58:52;;;;;;;1.65;0.90;;;20.10;99.90;;;;;;5072584;28;20208;-62
2021/07/06 05:01:19;;;;;;;1.50;1.00;;;20.90;99.90;;;;;;5072144;28;20324;-63
2021/07/06 05:03:48;;;;;;;1.17;0.90;;;22.30;99.90;;;;;;5071578;28;20205;-63
2021/07/06 05:06:17;;;;;;;1.85;1.17;;;23.90;99.90;;;;;;5072023;28;20240;-63
2021/07/06 05:08:44;;;;;;;2.67;1.30;;;25.10;99.90;;;;;;5071808;28;20228;-62
2021/07/06 05:11:11;;;;;;;4.07;0.82;;;25.80;99.90;;;;;;5071778;28;20209;-63
2021/07/06 05:13:38;;;;;;;1.20;1.05;;;26.50;99.90;;;;;;5071832;28;20235;-63
2021/07/06 05:16:05;;;;;;;1.52;1.08;;;27.60;99.90;;;;;;5072064;28;20282;-63
2021/07/06 05:18:32;;;;;;;1.60;0.90;;;28.20;99.90;;;;;;5071756;28;20204;-62
2021/07/06 05:20:59;;;;;;;2.42;0.80;;;28.30;99.90;;;;;;5071946;28;20294;-63
2021/07/06 05:23:27;;;;;;;2.20;0.80;;;27.90;99.90;;;;;;5071514;28;20209;-62
2021/07/06 05:25:53;;;;;;;5.00;0.95;;;27.00;99.90;;;;;;5071749;28;20282;-62
2021/07/06 05:28:20;;;;;;;1.52;0.88;;;26.10;99.90;;;;;;5071624;28;20287;-62
2021/07/06 05:30:47;;;;;;;2.10;1.20;;;25.20;99.90;;;;;;5071647;28;20201;-62
2021/07/06 05:33:14;;;;;;;2.78;1.10;;;24.50;99.90;;;;;;5071593;28;20216;-62
2021/07/06 05:35:40;;;;;;;2.00;1.00;;;23.90;99.90;;;;;;5071584;28;20209;-62
2021/07/06 05:38:07;;;;;;;1.48;1.00;;;23.50;99.90;;;;;;5071373;28;20205;-61
2021/07/06 05:40:38;;;;;;;2.78;0.90;;;23.30;99.90;;;;;;5071352;28;20231;-61
2021/07/06 05:43:06;;;;;;;1.35;0.90;;;23.90;99.90;;;;;;5071354;28;20300;-62
2021/07/06 05:45:33;;;;;;;2.10;1.08;;;25.80;99.90;;;;;;5071105;28;20231;-62
2021/07/06 05:48:00;;;;;;;3.03;1.20;;;28.60;99.90;;;;;;5071231;28;20250;-60
2021/07/06 05:50:27;;;;;;;1.85;1.10;;;30.80;97.30;;;;;;5071370;28;20703;-64
2021/07/06 05:52:54;;;;;;;2.47;0.90;;;32.20;93.20;;;;;;5071276;28;20231;-64
2021/07/06 05:55:20;;;;;;;1.92;0.80;;;33.20;86.70;;;;;;5071158;28;20209;-64
2021/07/06 05:57:48;;;;;;;1.48;0.90;;;33.60;82.50;;;;;;5071165;28;20236;-64
2021/07/06 06:00:17;;;;;;;3.03;1.08;;;33.80;78.50;;;;;;5070935;28;20603;-64
2021/07/06 06:02:43;;;;;;;1.73;0.90;;;34.20;76.90;;;;;;5071164;28;20215;-64
2021/07/06 06:05:11;;;;;;;2.42;1.10;;;34.70;72.70;;;;;;5070763;28;20208;-64
2021/07/06 06:07:39;;;;;;;1.50;0.90;;;35.20;69.20;;;;;;5071025;28;20241;-63
2021/07/06 06:10:07;;;;;;;2.42;1.00;;;35.50;66.20;;;;;;5071463;28;20240;-64
2021/07/06 06:12:34;;;;;;;3.15;1.00;;;35.20;66.70;;;;;;5071042;28;20212;-63
2021/07/06 06:15:02;;;;;;;1.27;0.60;;;35.40;66.00;;;;;;5070713;28;20231;-63
2021/07/06 06:17:28;;;;;;;3.45;2.22;;;36.00;63.80;;;;;;5071005;28;20229;-64
2021/07/06 06:19:55;;;;;;;3.28;1.20;;;36.50;61.90;;;;;;5070717;28;20205;-65
2021/07/06 06:22:22;;;;;;;1.13;0.98;;;36.70;60.10;;;;;;5071010;28;20209;-64
2021/07/06 06:24:49;;;;;;;1.35;0.75;;;36.80;59.40;;;;;;5070838;28;20209;-64
2021/07/06 06:27:16;;;;;;;2.22;0.90;;;37.10;59.10;;;;;;5070572;28;20699;-62
2021/07/06 06:29:43;;;;;;;1.63;0.70;;;37.50;58.30;;;;;;5070718;28;20698;-66
2021/07/06 06:32:11;;;;;;;1.17;0.68;;;38.10;56.90;;;;;;5070459;28;20569;-65
2021/07/06 06:34:37;;;;;;;0.93;0.70;;;38.90;55.20;;;;;;5070497;28;20673;-65
2021/07/06 06:37:04;;;;;;;1.75;0.75;;;39.40;53.40;;;;;;5070968;28;20225;-65
2021/07/06 06:39:31;;;;;;;1.08;0.70;;;39.80;52.10;;;;;;5070426;28;20606;-65
2021/07/06 06:41:58;;;;;;;2.17;0.70;;;39.80;52.00;;;;;;5070328;28;20251;-65
2021/07/06 06:44:24;;;;;;;2.25;0.73;;;40.10;51.00;;;;;;5070387;28;20215;-66
2021/07/06 06:46:51;;;;;;;3.53;0.70;;;40.70;50.30;;;;;;5070288;28;20236;-65
2021/07/06 06:49:19;;;;;;;1.20;0.60;;;40.80;49.40;;;;;;5070339;28;20669;-64
2021/07/06 06:51:46;;;;;;;0.55;0.55;;;40.70;49.60;;;;;;5070734;28;20212;-65
2021/07/06 06:54:13;;;;;;;4.25;0.70;;;40.50;49.40;;;;;;5070492;28;20258;-65
2021/07/06 06:56:41;;;;;;;1.40;0.68;;;39.70;49.70;;;;;;5073773;28;20228;-65
2021/07/06 06:59:08;;;;;;;1.95;0.70;;;39.30;50.50;;;;;;5074225;28;20243;-65
2021/07/06 07:01:37;;;;;;;1.15;0.57;;;39.30;50.90;;;;;;5074212;28;20231;-65
2021/07/06 07:04:04;;;;;;;4.15;0.80;;;39.50;49.90;;;;;;5074534;28;20282;-65
2021/07/06 07:06:32;;;;;;;3.72;0.88;;;39.60;49.90;;;;;;5074596;28;20232;-65
2021/07/06 07:08:59;;;;;;;4.75;0.90;;;40.00;49.60;;;;;;5074550;28;20212;-65
2021/07/06 07:11:26;;;;;;;1.52;0.77;;;39.90;50.00;;;;;;5074725;28;20207;-65
2021/07/06 07:13:52;;;;;;;2.50;0.90;;;40.50;49.40;;;;;;5074005;28;20201;-65
2021/07/06 07:16:19;;;;;;;2.72;1.00;;;41.60;47.30;;;;;;5074406;28;20221;-65
2021/07/06 07:18:46;;;;;;;1.10;1.00;;;42.70;45.70;;;;;;5074088;28;20200;-65
2021/07/06 07:21:13;;;;;;;2.67;1.00;;;42.90;45.30;;;;;;5073909;28;20891;-65
2021/07/06 07:23:41;;;;;;;2.10;0.80;;;42.80;45.50;;;;;;5073656;28;20557;-65
2021/07/06 07:26:07;;;;;;;2.72;0.93;;;43.10;44.70;;;;;;5073866;28;20235;-65
2021/07/06 07:28:35;;;;;;;2.90;0.60;;;43.70;44.00;;;;;;5073666;28;20596;-65
2021/07/06 07:31:02;;;;;;;3.15;1.50;;;44.40;42.30;;;;;;5074143;28;20200;-65
2021/07/06 07:33:28;;;;;;;3.35;2.42;;;44.60;41.00;;;;;;5073970;28;20204;-65
2021/07/06 07:35:55;;;;;;;1.77;0.90;;;43.20;42.50;;;;;;5074050;28;20224;-65
2021/07/06 07:38:22;;;;;;;3.03;0.90;;;42.00;43.80;;;;;;5073823;28;20215;-64
2021/07/06 07:40:50;;;;;;;1.02;0.80;;;41.70;43.70;;;;;;5073508;28;20220;-65
2021/07/06 07:43:17;;;;;;;1.75;0.63;;;42.10;43.40;;;;;;5073187;28;20563;-65
2021/07/06 07:45:43;;;;;;;1.40;0.63;;;42.90;43.10;;;;;;5073551;28;20204;-64
2021/07/06 07:48:10;;;;;;;1.95;0.63;;;43.50;41.80;;;;;;5073442;28;20212;-65
2021/07/06 07:50:37;;;;;;;2.15;0.50;;;44.10;41.00;;;;;;5073509;28;20655;-62
2021/07/06 07:53:04;;;;;;;0.80;0.60;;;44.80;40.10;;;;;;5073191;28;20338;-62
2021/07/06 07:55:30;;;;;;;1.95;0.55;;;45.80;39.00;;;;;;5072838;28;20204;-62
2021/07/06 07:57:58;;;;;;;5.70;0.73;;;46.20;38.10;;;;;;5073087;28;20204;-62
2021/07/06 08:00:25;;;;;;;1.45;0.70;;;46.50;37.50;;;;;;5073170;28;20208;-62
2021/07/06 08:02:52;;;;;;;0.80;0.60;;;46.90;37.20;;;;;;5073261;28;20231;-62
2021/07/06 08:05:19;;;;;;;1.80;0.68;;;47.00;36.60;;;;;;5073104;28;20204;-62
2021/07/06 08:07:46;;;;;;;3.08;0.82;;;46.80;37.00;;;;;;5071405;28;20682;-62
2021/07/06 08:10:13;;;;;;;1.23;0.70;;;45.80;37.90;;;;;;5073072;28;20204;-62
2021/07/06 08:12:40;;;;;;;3.05;0.70;;;45.40;38.50;;;;;;5073325;28;20204;-62
2021/07/06 08:15:08;;;;;;;1.23;0.73;;;45.10;38.50;;;;;;5072781;28;20577;-62
2021/07/06 08:17:35;;;;;;;3.45;0.75;;;44.80;38.30;;;;;;5072923;28;20229;-62
2021/07/06 08:20:02;;;;;;;1.83;0.90;;;44.20;38.90;;;;;;5072888;28;20204;-63
2021/07/06 08:22:29;;;;;;;2.08;1.00;;;43.00;40.30;;;;;;5072705;28;20228;-62
2021/07/06 08:24:56;;;;;;;2.72;0.90;;;42.00;41.20;;;;;;5072837;28;20209;-62
2021/07/06 08:27:22;;;;;;;1.20;0.60;;;41.00;42.70;;;;;;5072879;28;20232;-62
2021/07/06 08:29:49;;;;;;;0.88;0.70;;;40.00;43.60;;;;;;5072897;28;20212;-62
2021/07/06 08:32:17;;;;;;;4.07;0.82;;;39.20;45.00;;;;;;5072723;28;20621;-62
2021/07/06 08:34:44;;;;;;;1.30;0.80;;;39.80;44.60;;;;;;5072877;28;20213;-62
2021/07/06 08:37:11;;;;;;;1.75;0.77;;;40.80;42.90;;;;;;5072339;28;20228;-62
2021/07/06 08:39:38;;;;;;;0.93;0.60;;;41.50;42.20;;;;;;5072256;28;20208;-62
2021/07/06 08:42:06;;;;;;;2.05;0.55;;;41.70;42.30;;;;;;5072702;28;20330;-62
2021/07/06 08:44:33;;;;;;;1.85;0.57;;;41.60;41.90;;;;;;5072336;28;20672;-65
2021/07/06 08:47:00;;;;;;;2.45;1.40;;;42.10;41.70;;;;;;5072307;28;20228;-62
2021/07/06 08:49:29;;;;;;;2.00;1.40;;;42.60;41.50;;;;;;5072244;28;20291;-61
2021/07/06 08:51:56;;;;;;;4.20;2.55;;;42.50;41.80;;;;;;5072405;28;20205;-62
2021/07/06 08:54:23;;;;;;;3.63;1.38;;;42.60;43.30;;;;;;5072340;28;20238;-60
2021/07/06 08:56:50;;;;;;;2.53;0.90;;;42.40;43.60;;;;;;5072225;28;20231;-62
2021/07/06 08:59:17;;;;;;;5.18;1.10;;;41.80;43.60;;;;;;5072211;28;20205;-62
2021/07/06 09:01:43;;;;;;;5.68;1.25;;;41.10;44.90;;;;;;5072032;28;20279;-61
2021/07/06 09:04:11;;;;;;;3.50;1.10;;;40.30;45.60;;;;;;5071830;28;20209;-62
2021/07/06 09:09:31;;;;;;;1.73;1.45;;;39.40;46.70;;;;;;5129203;27;20550;-62
2021/07/06 09:12:00;;;;;;;3.58;1.10;;;38.20;48.10;;;;;;5129129;28;20210;-61
2021/07/06 09:14:29;;;;;;;5.25;1.10;;;38.00;48.60;;;;;;5128932;28;20552;-62
2021/07/06 09:17:09;;;;;;;3.53;1.23;;;37.90;49.00;;;;;;5128847;28;20226;-61
2021/07/06 09:19:36;;;;;;;2.67;1.05;;;37.90;49.60;;;;;;5129110;27;20211;-61
2021/07/06 09:22:18;;;;;;;2.33;1.08;;;37.90;49.50;;;;;;5119698;22;20248;-59
2021/07/06 09:24:48;;;;;;;0.80;0.65;;;37.50;49.10;;;;;;5068210;28;20201;-59
2021/07/06 09:27:36;;;;;;;1.27;0.90;;;37.10;49.70;;;;;;5068154;28;20208;-59
2021/07/06 09:30:08;;;;;;;3.70;1.20;;;36.80;50.30;;;;;;5061814;28;20205;-59
2021/07/06 09:32:36;;;;;;;5.78;1.30;;;36.40;51.50;;;;;;5067697;28;20650;-61
2021/07/06 09:35:08;;;;;;;7.18;1.48;;;35.60;53.70;;;;;;5067557;28;20228;-59
2021/07/06 09:37:47;;;;;;;4.07;1.55;;;34.10;56.60;;;;;;5067674;28;20628;-59
2021/07/06 09:40:30;;;;;;;3.53;1.45;;;32.40;59.70;;;;;;5067896;28;20230;-59
2021/07/06 09:43:21;;;;;;;5.78;1.33;;;30.80;64.10;;;;;;5067610;28;20233;-59
2021/07/06 09:46:00;;;;;;;2.15;1.23;;;29.40;69.50;;;;;;5067612;28;20206;-59
2021/07/06 09:48:28;;;;;;;2.42;1.20;;;28.50;73.30;;;;;;5067397;28;20225;-59
2021/07/06 09:51:10;;;;;;;5.43;1.00;;;28.00;75.00;;;;;;5067635;28;20205;-59
2021/07/06 09:53:37;;;;;;;0.73;0.63;;;27.90;76.80;;;;;;5067762;28;20212;-59
2021/07/06 09:56:10;;;;;;;4.13;0.80;;;27.90;77.30;;;;;;5067768;28;20209;-59
2021/07/06 09:58:51;;;;;;;2.72;0.73;;;27.90;76.20;;;;;;5067116;28;20231;-59
2021/07/06 10:01:18;;;;;;;1.30;0.70;;;27.80;77.20;;;;;;5067050;28;20236;-59
2021/07/06 10:03:45;;;;;;;2.00;0.70;;;27.70;78.60;;;;;;5067064;28;20231;-59
2021/07/06 10:06:13;;;;;;;1.83;0.90;;;27.70;79.80;;;;;;5067073;28;20296;-59
2021/07/06 10:08:41;;;;;;;2.38;0.63;;;27.90;79.80;;;;;;5066856;28;20224;-59
2021/07/06 10:11:09;;;;;;;0.82;0.45;;;28.10;79.30;;;;;;5066799;28;20221;-59
2021/07/06 10:13:37;;;;;;;1.20;0.60;;;28.20;78.70;;;;;;5066482;28;20864;-59
2021/07/06 10:16:04;;;;;;;1.38;0.55;;;28.30;79.00;;;;;;5066994;28;20201;-60
2021/07/06 10:18:32;;;;;;;0.60;0.60;;;28.20;79.20;;;;;;5066835;28;20227;-60
2021/07/06 10:20:59;;;;;;;1.88;0.50;;;28.10;80.60;;;;;;5053259;28;20271;-59
2021/07/06 10:23:26;;;;;;;1.95;0.80;;;28.20;81.10;;;;;;5053599;28;20209;-60
2021/07/06 10:25:54;;;;;;;1.13;0.75;;;28.20;81.70;;;;;;5053955;28;20217;-59
2021/07/06 10:28:23;;;;;;;2.67;1.17;;;28.30;80.90;;;;;;5053514;28;20815;-59
2021/07/06 10:30:50;;;;;;;0.55;0.45;;;28.30;81.50;;;;;;5053655;28;20742;-60
2021/07/06 10:33:28;;;;;;;1.17;0.63;;;28.50;81.10;;;;;;5053586;28;20640;-59
2021/07/06 10:35:55;;;;;;;0.75;0.60;;;28.70;81.30;;;;;;5053426;28;20213;-60
2021/07/06 10:38:48;;;;;;;1.50;0.50;;;29.00;80.70;;;;;;5054188;28;20198;-60
2021/07/06 10:41:42;;;;;;;1.38;1.25;;;29.40;79.60;;;;;;5054654;28;20229;-60
2021/07/06 10:44:10;;;;;;;0.55;0.50;;;29.60;77.00;;;;;;5053488;28;20224;-60
2021/07/06 10:46:45;;;;;;;1.83;1.40;;;29.80;76.90;;;;;;5053508;28;20210;-60
2021/07/06 10:49:15;;;;;;;0.88;0.70;;;29.80;76.10;;;;;;5053594;28;20235;-60
2021/07/06 10:51:52;;;;;;;0.65;0.40;;;30.00;75.80;;;;;;5054737;28;20509;-60
2021/07/06 10:54:30;;;;;;;0.70;0.40;;;30.00;73.40;;;;;;5053162;28;20244;-59
2021/07/06 10:56:59;;;;;;;2.97;0.77;;;30.00;74.60;;;;;;5052946;28;20205;-60
2021/07/06 10:59:35;;;;;;;0.70;0.45;;;30.10;73.40;;;;;;5053115;28;20296;-60
2021/07/06 11:02:02;;;;;;;0.60;0.45;;;30.40;73.00;;;;;;5053084;28;20232;-60
2021/07/06 11:05:02;;;;;;;0.80;0.40;;;30.50;72.90;;;;;;5052793;28;20209;-59
2021/07/06 11:07:57;;;;;;;1.08;0.82;;;30.50;72.00;;;;;;5052924;28;20590;-59
2021/07/06 11:10:42;;;;;;;3.50;3.10;;;30.30;73.60;;;;;;5052913;28;20290;-60
2021/07/06 11:13:33;;;;;;;1.80;0.50;;;30.40;73.20;;;;;;5052552;28;20631;-60
2021/07/06 11:16:04;;;;;;;0.70;0.43;;;30.60;72.30;;;;;;5052983;28;20209;-60
2021/07/06 11:18:47;;;;;;;1.30;1.08;;;30.70;72.00;;;;;;5053050;28;20665;-60
2021/07/06 11:21:38;;;;;;;0.85;0.63;;;30.70;72.40;;;;;;5053188;28;20344;-60
2021/07/06 11:24:12;;;;;;;0.82;0.60;;;30.90;72.00;;;;;;5052410;28;20224;-60
2021/07/06 11:26:43;;;;;;;0.80;0.80;;;31.20;71.70;;;;;;5052564;28;20216;-60
2021/07/06 11:29:09;;;;;;;1.00;0.60;;;31.30;70.80;;;;;;5052314;28;20225;-60
2021/07/06 11:31:37;;;;;;;0.80;0.55;;;31.20;70.10;;;;;;5051328;28;20232;-60
2021/07/06 11:34:05;;;;;;;0.93;0.77;;;31.00;71.30;;;;;;5052336;28;20208;-60
2021/07/06 11:36:32;;;;;;;0.70;0.50;;;30.90;71.80;;;;;;5052510;28;20206;-60
2021/07/06 11:39:01;;;;;;;0.90;0.57;;;31.20;70.20;;;;;;5052467;28;20259;-60
2021/07/06 11:41:29;;;;;;;1.48;1.05;;;31.50;69.70;;;;;;5052569;28;20263;-60
2021/07/06 11:43:56;;;;;;;0.93;0.60;;;31.90;69.80;;;;;;5052023;28;20205;-61
2021/07/06 11:46:23;;;;;;;1.40;0.60;;;32.10;69.30;;;;;;5052119;28;20209;-60
2021/07/06 11:48:52;;;;;;;1.13;0.68;;;32.20;68.20;;;;;;5051573;28;20218;-60
2021/07/06 11:51:21;;;;;;;1.20;0.70;;;32.10;68.80;;;;;;5052108;28;20229;-60
2021/07/06 11:53:55;;;;;;;3.28;1.10;;;31.90;69.00;;;;;;5051949;28;20236;-60
2021/07/06 11:56:24;;;;;;;3.15;1.27;;;31.40;69.40;;;;;;5052072;28;20209;-59
2021/07/06 11:58:52;;;;;;;3.00;1.58;;;31.00;71.20;;;;;;5051579;28;20285;-60
2021/07/06 12:01:19;;;;;;;0.82;0.52;;;30.60;71.90;;;;;;5051721;28;20228;-60
2021/07/06 12:03:46;;;;;;;0.65;0.40;;;30.40;72.90;;;;;;5051665;28;20221;-60
2021/07/06 12:06:16;;;;;;;0.85;0.60;;;30.00;74.50;;;;;;5052017;28;20209;-60
2021/07/06 12:08:44;;;;;;;0.90;0.80;;;29.60;75.60;;;;;;5051714;28;20217;-64
2021/07/06 12:11:12;;;;;;;1.85;0.50;;;29.50;76.80;;;;;;5051770;28;20226;-60
2021/07/06 12:13:47;;;;;;;1.17;0.80;;;29.40;77.90;;;;;;5051514;28;20213;-60
2021/07/06 12:16:16;;;;;;;1.10;0.90;;;29.30;78.40;;;;;;5051816;28;20209;-60
2021/07/06 12:18:52;;;;;;;1.10;1.00;;;29.30;78.80;;;;;;5051452;28;20209;-60
2021/07/06 12:21:26;;;;;;;0.47;0.47;;;29.40;79.40;;;;;;5051550;28;20752;-60
2021/07/06 12:23:53;;;;;;;1.00;0.60;;;29.30;79.40;;;;;;5051209;28;20209;-59
2021/07/06 12:26:22;;;;;;;0.55;0.55;;;29.30;79.40;;;;;;5051113;28;20213;-60
2021/07/06 12:28:48;;;;;;;0.88;0.60;;;29.50;79.50;;;;;;5051456;28;20225;-60
2021/07/06 12:31:27;;;;;;;1.77;0.63;;;29.70;79.30;;;;;;5051274;28;20726;-60
2021/07/06 12:34:09;;;;;;;0.88;0.65;;;29.80;77.40;;;;;;5051351;28;20640;-60
2021/07/06 12:36:44;;;;;;;1.08;0.65;;;29.70;78.20;;;;;;5051358;28;20407;-60
2021/07/06 12:39:13;;;;;;;0.82;0.60;;;29.70;78.30;;;;;;5049062;28;20217;-60
2021/07/06 12:41:41;;;;;;;3.22;0.70;;;29.60;78.90;;;;;;5050826;28;20613;-61
2021/07/06 12:44:09;;;;;;;0.90;0.60;;;29.50;79.40;;;;;;5050427;28;20241;-60
2021/07/06 12:46:36;;;;;;;2.15;1.00;;;29.00;81.20;;;;;;5050832;28;20206;-62
2021/07/06 12:49:02;;;;;;;1.55;0.50;;;28.60;82.40;;;;;;5050804;28;20231;-63
2021/07/06 12:51:29;;;;;;;1.50;0.55;;;28.00;83.50;;;;;;5050408;28;20229;-61
2021/07/06 12:53:59;;;;;;;0.82;0.70;;;27.60;85.10;;;;;;5050637;28;20213;-62
2021/07/06 12:56:27;;;;;;;0.47;0.40;;;27.40;86.50;;;;;;5050841;28;20228;-61
2021/07/06 12:58:54;;;;;;;0.93;0.60;;;27.40;86.90;;;;;;5050625;28;20255;-63